Atlantic - Newfoundland: Past 24 Hour Conditions

 

Îles de la Madeleine Airport

05:00 PM ADT 23 July 2014
This table is a summary of hourly weather conditions for the past 24 hours.
Date / Time
(ADT)
Wind(knots) Conditions Visibility(km) Pressure(kPa) Air tempC) Relative humidity(%) Dew pointC) Humidex
23 July 2014
17:00 SW 22 gust 29 Partly Cloudy 19 100.4 27 64 20 34
16:00 SSW 18 gust 24 Partly Cloudy 19 100.4 27 65 20 34
15:00 SSW 15 gust 25 Partly Cloudy 16 100.5 26 65 19 33
14:00 SSW 17 gust 27 Mostly Cloudy 24 100.5 26 65 19 33
13:00 SSW 16 gust 24 Mostly Cloudy 24 100.6 25 68 19 32
12:00 SW 19 gust 27 Mostly Cloudy 24 100.6 24 70 18 30
11:00 SW 16 gust 26 Partly Cloudy 32 100.7 24 72 18 30
10:00 SW 13 gust 21 Partly Cloudy 32 100.8 23 72 18 29
9:00 SW 16 gust 23 Partly Cloudy 32 100.8 22 78 18 28
8:00 SW 13 gust 22 Partly Cloudy 32 100.8 21 80 18 27
7:00 SW 13 gust 19 Partly Cloudy 32 100.8 20 84 17 *
6:00 SW 13 gust 20 Partly Cloudy 32 100.8 20 84 17 *
5:00 N/A N/A N/A N/A N/A N/A N/A *
4:00 SW 15 N/A N/A 100.8 20 85 17 *
3:00 SW 13 gust 19 N/A N/A 100.9 20 83 17 *
2:00 SW 13 gust 19 N/A N/A 100.9 20 82 17 25
1:00 SW 12 gust 17 N/A N/A 101.0 20 81 17 25
0:00 SW 16 gust 21 N/A N/A 101.0 21 78 17 26
22 July 2014
23:00 SW 15 gust 22 Partly Cloudy 24 101.1 22 75 17 27
22:00 SW 16 gust 23 Partly Cloudy 24 101.1 22 74 17 28
21:00 SW 14 Cloudy 32 101.1 22 73 17 28
20:00 SSW 12 gust 19 Mostly Cloudy 32 101.1 23 71 17 28
19:00 SSW 9 gust 15 Mostly Cloudy 24 101.2 22 78 18 28
18:00 SSW 8 Partly Cloudy 24 101.3 23 71 18 29
17:00 SSW 11 gust 18 Cloudy 32 101.4 23 71 18 29
 
Map of Atlantic - Newfoundland marine weather areas Southwestern Grand Banks - 44138 Banquereau - 44139 Tail of the Bank - 44140 Nickerson Bank - 44251 Northeast Burgeo Bank - 44255 Blanc-Sablon Airport Cap Whittle Chevery Natashquan Airport Heath Point Miscou Island Grand Étang Ingonish Beach North Mountain St.Paul Island J.A. Douglas McCurdy Sydney Airport Charlottetown Airport East Point North Cape Argentia Bonavista Burgeo Cape Race Corner Brook Daniel's Harbour Englee Ferolle Point La Scie Port aux Basques Rocky Harbour Sagona Island St. Anthony Airport St. John's Int'l Airport St. Lawrence Stephenville Airport Twillingate Winterland Wreckhouse Cartwright Airport Mary's Harbour Grates Cove Pool's Island Marticot Island Long Pond Îles de la Madeleine Airport
Legend: buoyBuoy land stationLand Station